createdAt,value
2019-05-03T00:00:57.302Z,99.90
2019-05-03T00:03:26.799Z,99.90
2019-05-03T00:05:58.064Z,99.90
2019-05-03T00:08:27.592Z,99.90
2019-05-03T00:10:57.288Z,99.90
2019-05-03T00:13:28.430Z,99.90
2019-05-03T00:16:02.762Z,99.90
2019-05-03T00:18:32.735Z,99.90
2019-05-03T00:21:02.585Z,99.90
2019-05-03T00:23:32.497Z,99.90
2019-05-03T00:26:02.659Z,99.90
2019-05-03T00:28:32.509Z,99.90
2019-05-03T00:31:02.213Z,99.90
2019-05-03T00:33:31.903Z,99.90
2019-05-03T00:36:18.548Z,99.90
2019-05-03T00:38:48.794Z,99.90
2019-05-03T00:41:18.309Z,99.90
2019-05-03T00:43:47.971Z,99.90
2019-05-03T00:46:17.486Z,99.90
2019-05-03T00:48:46.998Z,99.90
2019-05-03T00:51:16.494Z,99.90
2019-05-03T00:53:46.188Z,99.90
2019-05-03T00:56:15.790Z,99.90
2019-05-03T00:58:49.727Z,99.90
2019-05-03T01:01:19.563Z,99.90
2019-05-03T01:03:49.168Z,99.90
2019-05-03T01:06:18.741Z,99.90
2019-05-03T01:08:48.349Z,99.90
2019-05-03T01:11:18.050Z,99.90
2019-05-03T01:13:47.579Z,99.90
2019-05-03T01:16:18.698Z,99.90
2019-05-03T01:18:48.272Z,99.90
2019-05-03T01:21:18.114Z,99.90
2019-05-03T01:23:47.630Z,99.90
2019-05-03T01:26:17.356Z,99.90
2019-05-03T01:28:46.866Z,99.90
2019-05-03T01:31:16.358Z,99.90
2019-05-03T01:33:45.869Z,99.90
2019-05-03T01:36:16.892Z,99.90
2019-05-03T01:38:46.747Z,99.90
2019-05-03T01:41:16.204Z,99.90
2019-05-03T01:43:45.724Z,99.90
2019-05-03T01:46:15.207Z,99.90
2019-05-03T01:48:49.096Z,99.90
2019-05-03T01:51:22.948Z,99.90
2019-05-03T01:53:52.455Z,99.90
2019-05-03T01:56:22.376Z,99.90
2019-05-03T01:58:52.401Z,99.90
2019-05-03T02:01:22.159Z,99.90
2019-05-03T02:03:53.424Z,99.90
2019-05-03T02:06:22.940Z,99.90
2019-05-03T02:08:52.497Z,99.90
2019-05-03T02:11:22.299Z,99.90
2019-05-03T02:13:52.241Z,99.90
2019-05-03T02:16:21.968Z,99.90
2019-05-03T02:18:51.884Z,99.90
2019-05-03T02:21:21.756Z,99.90
2019-05-03T02:23:52.072Z,99.90
2019-05-03T02:26:22.419Z,99.90
2019-05-03T02:28:52.811Z,99.90
2019-05-03T02:31:23.333Z,99.90
2019-05-03T02:33:53.607Z,99.90
2019-05-03T02:36:23.550Z,99.90
2019-05-03T02:38:53.849Z,99.90
2019-05-03T02:41:23.525Z,99.90
2019-05-03T02:43:57.591Z,99.90
2019-05-03T02:46:46.786Z,99.90
2019-05-03T02:49:20.583Z,99.90
2019-05-03T02:51:50.122Z,99.90
2019-05-03T02:54:20.024Z,99.90
2019-05-03T02:56:49.565Z,99.90
2019-05-03T02:59:19.200Z,99.90
2019-05-03T03:01:48.916Z,99.90
2019-05-03T03:04:19.116Z,99.90
2019-05-03T03:06:49.968Z,99.90
2019-05-03T03:09:25.608Z,99.90
2019-05-03T03:11:57.416Z,99.90
2019-05-03T03:14:30.490Z,99.90
2019-05-03T03:17:06.418Z,99.90
2019-05-03T03:19:36.708Z,99.90
2019-05-03T03:22:08.134Z,99.90
2019-05-03T03:24:40.643Z,99.90
2019-05-03T03:27:16.448Z,99.90
2019-05-03T03:29:50.958Z,99.90
2019-05-03T03:32:31.372Z,99.90
2019-05-03T03:35:22.150Z,99.90
2019-05-03T03:37:51.912Z,99.90
2019-05-03T03:40:25.246Z,99.90
2019-05-03T03:42:55.961Z,99.90
2019-05-03T03:45:25.591Z,99.90
2019-05-03T03:47:56.579Z,99.90
2019-05-03T03:50:27.508Z,99.90
2019-05-03T03:52:59.423Z,99.90
2019-05-03T03:55:32.462Z,99.90
2019-05-03T03:58:02.797Z,99.90
2019-05-03T04:00:32.810Z,99.90
2019-05-03T04:03:05.893Z,99.90
2019-05-03T04:05:35.883Z,99.90
2019-05-03T04:08:05.948Z,99.90
2019-05-03T04:10:35.536Z,99.90
2019-05-03T04:13:06.995Z,99.90
2019-05-03T04:15:39.815Z,99.90
2019-05-03T04:18:09.507Z,99.90
2019-05-03T04:20:39.528Z,99.90
2019-05-03T04:23:09.270Z,99.90
2019-05-03T04:25:39.327Z,99.90
2019-05-03T04:28:10.194Z,99.90
2019-05-03T04:30:39.752Z,99.90
2019-05-03T04:33:09.272Z,99.90
2019-05-03T04:35:38.903Z,99.90
2019-05-03T04:38:08.424Z,99.90
2019-05-03T04:40:37.958Z,99.90
2019-05-03T04:43:07.468Z,99.90
2019-05-03T04:45:37.008Z,99.90
2019-05-03T04:48:07.061Z,99.90
2019-05-03T04:50:37.214Z,99.90
2019-05-03T04:53:07.273Z,99.90
2019-05-03T04:55:36.821Z,99.90
2019-05-03T04:58:06.406Z,99.90
2019-05-03T05:00:36.226Z,99.90
2019-05-03T05:03:06.271Z,99.90
2019-05-03T05:05:36.668Z,99.90
2019-05-03T05:08:06.751Z,99.90
2019-05-03T05:10:36.587Z,99.90
2019-05-03T05:13:06.239Z,99.90
2019-05-03T05:15:36.010Z,99.90
2019-05-03T05:18:20.970Z,99.90
2019-05-03T05:20:52.696Z,99.90
2019-05-03T05:23:22.585Z,99.90
2019-05-03T05:25:51.959Z,99.90
2019-05-03T05:28:38.345Z,99.90
2019-05-03T05:31:09.499Z,99.90
2019-05-03T05:33:39.019Z,99.90
2019-05-03T05:36:08.589Z,99.90
2019-05-03T05:38:38.478Z,99.90
2019-05-03T05:41:08.503Z,99.90
2019-05-03T05:43:38.096Z,99.90
2019-05-03T05:46:07.733Z,99.90
2019-05-03T05:48:45.209Z,99.90
2019-05-03T05:51:16.177Z,99.90
2019-05-03T05:53:45.983Z,99.90
2019-05-03T05:56:17.639Z,99.90
2019-05-03T05:58:57.754Z,99.90
2019-05-03T06:01:29.462Z,99.90
2019-05-03T06:03:59.134Z,99.90
2019-05-03T06:06:36.491Z,99.90
2019-05-03T06:09:12.839Z,99.90
2019-05-03T06:11:50.061Z,99.90
2019-05-03T06:14:21.412Z,99.90
2019-05-03T06:17:08.855Z,99.90
2019-05-03T06:19:52.244Z,99.90
2019-05-03T06:22:25.547Z,99.90
2019-05-03T06:24:56.918Z,99.90
2019-05-03T06:27:28.258Z,99.90
2019-05-03T06:29:59.554Z,99.90
2019-05-03T06:32:30.828Z,99.90
2019-05-03T06:35:00.391Z,99.90
2019-05-03T06:37:37.621Z,99.90
2019-05-03T06:40:08.875Z,99.90
2019-05-03T06:42:50.956Z,99.90
2019-05-03T06:45:11.859Z,99.90
2019-05-03T06:47:45.983Z,99.90
2019-05-03T06:50:14.510Z,99.90
2019-05-03T06:52:44.703Z,99.90
2019-05-03T06:55:14.750Z,99.90
2019-05-03T06:57:49.515Z,99.90
2019-05-03T07:00:19.352Z,99.90
2019-05-03T07:02:54.589Z,99.90
2019-05-03T07:05:31.719Z,99.90
2019-05-03T07:08:19.059Z,99.90
2019-05-03T07:10:56.212Z,99.90
2019-05-03T07:13:25.745Z,99.90
2019-05-03T07:15:56.018Z,99.90
2019-05-03T07:18:25.978Z,99.90
2019-05-03T07:20:57.270Z,99.90
2019-05-03T07:23:26.876Z,99.90
2019-05-03T07:25:56.513Z,99.90
2019-05-03T07:28:26.324Z,99.90
2019-05-03T07:30:55.824Z,99.90
2019-05-03T07:33:27.228Z,99.90
2019-05-03T07:35:56.818Z,99.90
2019-05-03T07:38:26.631Z,99.90
2019-05-03T07:40:56.176Z,99.90
2019-05-03T07:43:25.919Z,99.90
2019-05-03T07:45:55.658Z,99.90
2019-05-03T07:48:26.170Z,99.30
2019-05-03T07:50:55.910Z,99.90
2019-05-03T07:53:25.601Z,99.70
2019-05-03T07:55:55.058Z,99.60
2019-05-03T07:58:26.391Z,95.90
2019-05-03T08:01:06.064Z,99.00
2019-05-03T08:03:28.922Z,99.80
2019-05-03T08:05:58.475Z,99.90
2019-05-03T08:08:27.987Z,99.90
2019-05-03T08:10:57.504Z,99.90
2019-05-03T08:13:27.090Z,99.90
2019-05-03T08:15:56.682Z,99.90
2019-05-03T08:18:26.309Z,99.90
2019-05-03T08:20:55.977Z,99.90
2019-05-03T08:23:29.999Z,99.90
2019-05-03T08:25:56.875Z,99.90
2019-05-03T08:28:26.960Z,99.90
2019-05-03T08:31:15.063Z,99.90
2019-05-03T08:33:59.794Z,99.90
2019-05-03T08:36:30.978Z,99.90
2019-05-03T08:39:00.520Z,97.40
2019-05-03T08:41:32.027Z,97.40
2019-05-03T08:44:01.577Z,97.80
2019-05-03T08:46:31.143Z,98.20
2019-05-03T08:49:01.286Z,97.70
2019-05-03T08:51:31.258Z,99.30
2019-05-03T08:54:00.725Z,97.20
2019-05-03T08:56:30.239Z,97.50
2019-05-03T08:58:59.816Z,98.10
2019-05-03T09:01:29.524Z,99.60
2019-05-03T09:03:59.073Z,95.50
2019-05-03T09:06:28.596Z,98.20
2019-05-03T09:08:58.122Z,93.80
2019-05-03T09:11:33.971Z,95.60
2019-05-03T09:14:00.724Z,95.50
2019-05-03T09:16:32.590Z,95.10
2019-05-03T09:19:02.126Z,95.30
2019-05-03T09:21:31.615Z,98.80
2019-05-03T09:24:01.106Z,99.90
2019-05-03T09:26:30.762Z,99.90
2019-05-03T09:29:00.249Z,98.90
2019-05-03T09:31:29.959Z,99.90
2019-05-03T09:33:59.509Z,99.90
2019-05-03T09:36:29.319Z,99.90
2019-05-03T09:38:58.780Z,99.00
2019-05-03T09:41:28.825Z,99.90
2019-05-03T09:43:58.293Z,99.90
2019-05-03T09:46:27.838Z,99.60
2019-05-03T09:49:09.975Z,99.00
2019-05-03T09:51:29.252Z,99.90
2019-05-03T09:54:15.725Z,99.90
2019-05-03T09:56:58.658Z,99.50
2019-05-03T09:59:29.440Z,99.90
2019-05-03T10:01:59.560Z,97.10
2019-05-03T10:04:29.198Z,95.40
2019-05-03T10:06:58.668Z,90.50
2019-05-03T10:09:28.367Z,76.00
2019-05-03T10:11:58.219Z,70.40
2019-05-03T10:14:28.003Z,75.10
2019-05-03T10:16:59.217Z,75.20
2019-05-03T10:19:37.664Z,74.80
2019-05-03T10:22:00.002Z,78.80
2019-05-03T10:24:29.592Z,81.90
2019-05-03T10:26:59.515Z,81.40
2019-05-03T10:29:29.099Z,87.90
2019-05-03T10:32:02.954Z,89.00
2019-05-03T10:34:32.446Z,89.60
2019-05-03T10:37:02.414Z,84.90
2019-05-03T10:39:32.159Z,82.10
2019-05-03T10:42:01.660Z,68.40
2019-05-03T10:44:31.327Z,67.20
2019-05-03T10:47:01.119Z,61.00
2019-05-03T10:49:30.751Z,59.00
2019-05-03T10:52:01.906Z,59.70
2019-05-03T10:54:31.540Z,69.90
2019-05-03T10:57:02.689Z,69.20
2019-05-03T10:59:32.205Z,81.70
2019-05-03T11:02:10.404Z,71.40
2019-05-03T11:04:40.077Z,65.00
2019-05-03T11:07:09.702Z,74.90
2019-05-03T11:09:48.494Z,78.40
2019-05-03T11:12:10.502Z,66.50
2019-05-03T11:14:40.072Z,70.60
2019-05-03T11:17:09.570Z,70.60
2019-05-03T11:19:39.238Z,70.10
2019-05-03T11:22:08.779Z,70.80
2019-05-03T11:24:38.285Z,73.00
2019-05-03T11:27:09.553Z,71.30
2019-05-03T11:29:39.043Z,78.10
2019-05-03T11:32:16.841Z,76.30
2019-05-03T11:34:55.387Z,75.10
2019-05-03T11:37:42.191Z,82.20
2019-05-03T11:40:12.518Z,81.20
2019-05-03T11:42:42.209Z,71.40
2019-05-03T11:45:15.138Z,74.00
2019-05-03T11:47:45.738Z,75.70
2019-05-03T11:50:16.207Z,76.20
2019-05-03T11:52:47.267Z,76.10
2019-05-03T11:55:17.212Z,80.80
2019-05-03T11:57:46.747Z,77.40
2019-05-03T12:00:18.679Z,84.00
2019-05-03T12:02:49.839Z,76.20
2019-05-03T12:05:27.296Z,74.00
2019-05-03T12:07:57.135Z,72.60
2019-05-03T12:10:46.086Z,72.40
2019-05-03T12:13:05.106Z,66.80
2019-05-03T12:15:35.191Z,69.50
2019-05-03T12:18:07.682Z,71.50
2019-05-03T12:20:39.216Z,66.30
2019-05-03T12:23:09.783Z,73.20
2019-05-03T12:25:40.607Z,70.90
2019-05-03T12:28:10.808Z,76.70
2019-05-03T12:30:40.784Z,66.70
2019-05-03T12:33:10.666Z,63.70
2019-05-03T12:35:40.156Z,66.70
2019-05-03T12:38:09.780Z,65.20
2019-05-03T12:40:39.269Z,70.90
2019-05-03T12:43:08.840Z,62.00
2019-05-03T12:45:38.637Z,69.70
2019-05-03T12:48:08.831Z,67.30
2019-05-03T12:50:38.995Z,65.00
2019-05-03T12:53:08.700Z,73.30
2019-05-03T12:55:38.276Z,73.70
2019-05-03T12:58:08.038Z,77.00
2019-05-03T13:00:50.874Z,75.40
2019-05-03T13:03:24.544Z,79.10
2019-05-03T13:05:55.467Z,68.70
2019-05-03T13:08:35.221Z,65.80
2019-05-03T13:11:06.711Z,68.30
2019-05-03T13:13:36.556Z,69.50
2019-05-03T13:16:07.771Z,68.20
2019-05-03T13:18:37.664Z,72.10
2019-05-03T13:21:07.500Z,73.40
2019-05-03T13:23:37.221Z,75.70
2019-05-03T13:26:06.770Z,75.80
2019-05-03T13:28:36.423Z,76.30
2019-05-03T13:31:06.239Z,75.80
2019-05-03T13:33:36.198Z,70.70
2019-05-03T13:36:07.217Z,69.30
2019-05-03T13:38:36.770Z,69.80
2019-05-03T13:41:06.759Z,68.50
2019-05-03T13:43:36.403Z,73.50
2019-05-03T13:46:06.276Z,67.20
2019-05-03T13:48:45.391Z,71.80
2019-05-03T13:51:07.822Z,63.70
2019-05-03T13:53:37.640Z,70.60
2019-05-03T13:56:07.124Z,75.90
2019-05-03T13:58:36.702Z,79.40
2019-05-03T14:01:06.432Z,77.80
2019-05-03T14:03:36.495Z,76.90
2019-05-03T14:06:08.629Z,76.30
2019-05-03T14:08:37.571Z,73.90
2019-05-03T14:11:07.343Z,71.90
2019-05-03T14:13:36.893Z,75.20
2019-05-03T14:16:07.183Z,76.00
2019-05-03T14:18:37.101Z,70.90
2019-05-03T14:21:10.876Z,69.40
2019-05-03T14:23:58.339Z,69.90
2019-05-03T14:26:27.903Z,75.90
2019-05-03T14:28:57.555Z,71.10
2019-05-03T14:31:27.140Z,82.50
2019-05-03T14:33:56.762Z,78.90
2019-05-03T14:36:27.373Z,83.00
2019-05-03T14:38:56.868Z,74.00
2019-05-03T14:41:26.527Z,74.50
2019-05-03T14:43:56.102Z,71.90
2019-05-03T14:46:32.648Z,70.60
2019-05-03T14:48:56.964Z,70.20
2019-05-03T14:51:26.646Z,68.00
2019-05-03T14:53:57.039Z,73.90
2019-05-03T14:56:31.198Z,77.50
2019-05-03T14:59:18.564Z,73.60
2019-05-03T15:02:05.265Z,79.80
2019-05-03T15:04:35.170Z,78.00
2019-05-03T15:07:06.033Z,74.20
2019-05-03T15:09:35.788Z,75.90
2019-05-03T15:12:05.787Z,73.70
2019-05-03T15:14:35.720Z,73.90
2019-05-03T15:17:05.519Z,75.10
2019-05-03T15:19:35.136Z,76.40
2019-05-03T15:22:05.704Z,76.60
2019-05-03T15:24:35.610Z,77.30
2019-05-03T15:27:05.265Z,78.70
2019-05-03T15:29:35.584Z,78.50
2019-05-03T15:32:05.347Z,80.70
2019-05-03T15:34:35.548Z,76.30
2019-05-03T15:37:05.735Z,75.40
2019-05-03T15:39:35.404Z,73.60
2019-05-03T15:42:05.363Z,75.50
2019-05-03T15:44:54.502Z,73.90
2019-05-03T15:47:25.634Z,76.00
2019-05-03T15:49:55.421Z,77.00
2019-05-03T15:52:25.046Z,78.30
2019-05-03T15:54:55.202Z,80.00
2019-05-03T15:57:25.355Z,75.60
2019-05-03T15:59:55.253Z,77.90
2019-05-03T16:02:25.003Z,79.10
2019-05-03T16:04:57.208Z,77.90
2019-05-03T16:07:26.023Z,78.50
2019-05-03T16:09:55.527Z,79.30
2019-05-03T16:12:29.142Z,79.00
2019-05-03T16:14:59.051Z,79.00
2019-05-03T16:17:28.993Z,81.20
2019-05-03T16:19:58.687Z,80.10
2019-05-03T16:22:28.258Z,82.30
2019-05-03T16:24:58.081Z,82.90
2019-05-03T16:27:27.655Z,82.70
2019-05-03T16:29:57.676Z,84.60
2019-05-03T16:32:27.350Z,86.20
2019-05-03T16:34:56.935Z,84.30
2019-05-03T16:37:26.529Z,85.70
2019-05-03T16:39:57.833Z,87.00
2019-05-03T16:42:27.901Z,87.90
2019-05-03T16:44:57.488Z,88.90
2019-05-03T16:47:27.143Z,90.90
2019-05-03T16:49:57.026Z,89.50
2019-05-03T16:52:26.534Z,87.50
2019-05-03T16:54:56.146Z,89.30
2019-05-03T16:57:25.752Z,90.50
2019-05-03T16:59:55.295Z,90.50
2019-05-03T17:02:25.237Z,90.40
2019-05-03T17:04:56.761Z,90.90
2019-05-03T17:07:28.045Z,91.10
2019-05-03T17:09:59.411Z,91.30
2019-05-03T17:12:30.628Z,92.10
2019-05-03T17:15:00.220Z,91.90
2019-05-03T17:17:29.837Z,93.60
2019-05-03T17:19:59.692Z,92.60
2019-05-03T17:22:29.359Z,93.60
2019-05-03T17:24:58.930Z,94.90
2019-05-03T17:27:28.485Z,95.20
2019-05-03T17:29:58.061Z,94.40
2019-05-03T17:32:27.553Z,96.70
2019-05-03T17:34:57.329Z,98.30
2019-05-03T18:09:39.708Z,99.90
2019-05-03T18:12:09.712Z,99.90
2019-05-03T18:14:39.672Z,99.90
2019-05-03T18:17:09.493Z,99.90
2019-05-03T18:19:40.064Z,99.90
2019-05-03T18:22:10.038Z,99.90
2019-05-03T18:24:39.585Z,99.90
2019-05-03T18:27:09.269Z,99.90
2019-05-03T18:29:38.822Z,99.90
2019-05-03T18:32:08.334Z,99.90
2019-05-03T18:34:37.970Z,99.90
2019-05-03T18:37:07.606Z,99.90
2019-05-03T18:39:37.189Z,99.90
2019-05-03T18:42:08.327Z,99.90
2019-05-03T18:44:45.710Z,99.90
2019-05-03T18:47:20.294Z,99.90
2019-05-03T18:49:48.975Z,99.90
2019-05-03T18:52:18.464Z,99.90
2019-05-03T18:54:48.153Z,99.90
2019-05-03T18:57:17.849Z,99.90
2019-05-03T18:59:48.016Z,99.90
2019-05-03T19:02:20.365Z,99.90
2019-05-03T19:04:51.403Z,99.90
2019-05-03T19:07:37.478Z,99.90
2019-05-03T19:10:22.333Z,99.90
2019-05-03T19:13:11.728Z,99.90
2019-05-03T19:15:41.519Z,99.90
2019-05-03T19:18:24.569Z,99.90
2019-05-03T19:20:55.066Z,99.90
2019-05-03T19:23:25.016Z,99.90
2019-05-03T19:25:55.301Z,99.90
2019-05-03T19:28:25.156Z,99.90
2019-05-03T19:30:55.069Z,99.90
2019-05-03T19:33:25.379Z,99.90
2019-05-03T19:35:55.236Z,99.90
2019-05-03T19:38:24.805Z,99.90
2019-05-03T19:40:54.830Z,99.90
2019-05-03T19:43:27.115Z,99.90
2019-05-03T19:45:55.918Z,99.90
2019-05-03T19:48:25.734Z,99.90
2019-05-03T19:50:55.318Z,99.90
2019-05-03T19:53:27.467Z,99.90
2019-05-03T19:55:57.460Z,99.90
2019-05-03T19:58:27.456Z,99.90
2019-05-03T20:01:20.185Z,99.90
2019-05-03T20:03:54.571Z,99.90
2019-05-03T20:06:31.479Z,99.90
2019-05-03T20:09:10.366Z,99.90
2019-05-03T20:11:40.072Z,99.90
2019-05-03T20:14:09.906Z,99.90
2019-05-03T20:16:39.640Z,99.90
2019-05-03T20:19:18.762Z,99.90
2019-05-03T20:21:41.177Z,99.90
2019-05-03T20:24:11.033Z,99.90
2019-05-03T20:26:40.801Z,99.90
2019-05-03T20:29:10.571Z,99.90
2019-05-03T20:31:40.107Z,99.90
2019-05-03T20:34:09.650Z,99.90
2019-05-03T20:36:39.326Z,99.90
2019-05-03T20:39:09.220Z,99.90
2019-05-03T20:41:39.061Z,99.90
2019-05-03T20:44:16.319Z,99.90
2019-05-03T20:46:51.077Z,99.90
2019-05-03T20:49:21.563Z,99.90
2019-05-03T20:51:51.554Z,99.90
2019-05-03T20:54:21.164Z,99.90
2019-05-03T20:56:50.891Z,99.90
2019-05-03T20:59:20.725Z,99.90
2019-05-03T21:01:50.740Z,99.90
2019-05-03T21:04:20.469Z,99.90
2019-05-03T21:06:50.209Z,99.90
2019-05-03T21:09:19.856Z,99.90
2019-05-03T21:11:49.687Z,99.90
2019-05-03T21:14:19.455Z,99.90
2019-05-03T21:17:07.142Z,99.90
2019-05-03T21:19:38.479Z,99.90
2019-05-03T21:22:10.706Z,99.90
2019-05-03T21:24:42.487Z,99.90
2019-05-03T21:27:15.262Z,99.90
2019-05-03T21:29:54.860Z,99.90
2019-05-03T21:32:25.053Z,99.90
2019-05-03T21:34:55.769Z,99.90
2019-05-03T21:37:25.550Z,99.90
2019-05-03T21:39:55.664Z,99.90
2019-05-03T21:42:25.271Z,99.90
2019-05-03T21:44:55.532Z,99.90
2019-05-03T21:47:29.884Z,99.90
2019-05-03T21:50:00.822Z,99.90
2019-05-03T21:52:30.472Z,99.90
2019-05-03T21:54:59.996Z,99.90
2019-05-03T21:57:29.565Z,99.90
2019-05-03T21:59:59.428Z,99.90
2019-05-03T22:02:31.597Z,99.90
2019-05-03T22:05:01.175Z,99.90
2019-05-03T22:07:30.702Z,99.90
2019-05-03T22:10:00.228Z,99.90
2019-05-03T22:12:30.209Z,99.90
2019-05-03T22:15:05.089Z,99.90
2019-05-03T22:17:52.938Z,99.90
2019-05-03T22:20:24.592Z,99.90
2019-05-03T22:22:55.749Z,99.90
2019-05-03T22:25:26.996Z,99.90
2019-05-03T22:27:56.464Z,99.90
2019-05-03T22:30:26.922Z,99.90
2019-05-03T22:32:56.685Z,99.90
2019-05-03T22:35:26.209Z,99.90
2019-05-03T22:37:55.696Z,99.90
2019-05-03T22:40:25.333Z,99.90
2019-05-03T22:42:54.904Z,99.90
2019-05-03T22:45:24.646Z,99.90
2019-05-03T22:47:54.977Z,99.90
2019-05-03T22:50:27.055Z,99.90
2019-05-03T22:52:58.172Z,99.90
2019-05-03T22:55:27.877Z,99.90
2019-05-03T22:57:57.491Z,99.90
2019-05-03T23:00:27.180Z,99.90
2019-05-03T23:02:56.758Z,99.90
2019-05-03T23:05:26.522Z,99.90
2019-05-03T23:08:01.341Z,99.90
2019-05-03T23:10:31.509Z,99.90
2019-05-03T23:13:02.607Z,99.90
2019-05-03T23:15:32.253Z,99.90
2019-05-03T23:18:01.926Z,99.90
2019-05-03T23:20:42.384Z,99.90
2019-05-03T23:23:14.457Z,99.90
2019-05-03T23:25:45.875Z,99.90
2019-05-03T23:28:15.797Z,99.90
2019-05-03T23:30:45.398Z,99.90
2019-05-03T23:33:14.885Z,99.90
2019-05-03T23:35:44.655Z,99.90
2019-05-03T23:38:15.147Z,99.90
2019-05-03T23:40:44.904Z,99.90
2019-05-03T23:43:14.505Z,99.90
2019-05-03T23:45:45.256Z,99.90
2019-05-03T23:48:14.992Z,99.90
2019-05-03T23:50:44.670Z,99.90
2019-05-03T23:53:15.365Z,99.90
2019-05-03T23:55:47.015Z,99.90
2019-05-03T23:58:16.574Z,99.90
